x

Ilm2 - 5 Miles Se Of Wrightsville Beach, Nc (41038) Weather Station

3:08 - Sat 25th Apr 2015 All times are EDT. -4 hours from GMT.

  • Wind
    7mph, 11mph gusts
  • Sea Temp 65°f
  • Luft Temp 63°f
  • Sea Pressure 1008.8mb
  • Ilm2 - 5 Miles Se Of Wrightsville Beach, Nc
  • Ilm2 - 5 Miles Se Of Wrightsville Beach, Nc

More Historic Weather Station data

Upgrade to MSW Pro to gain access to the past 30 days of data for over 8000 Wavebouys and Weather Stations around the globe.

Join Pro

Comparision Forecast

View Surf forecast
   
Sa 04/25 3:08 7 11 mph 1008.8mb 65f 63f
2:53 9
mph
1009.3mb 65f 63f
2:38 7 9 mph 1009.7mb 65f 62f
2:23 7 9 mph 1010.2mb 65f 62f
2:08 7 9 mph 1010.6mb 65f 62f
1:53 4 7 mph 1010.7mb 65f 62f
1:38 2 7 mph 1011.3mb 65f 62f
1:23 2 7 mph 1011.7mb 65f 63f
1:08 4 9 mph 1012.1mb 65f 63f
12:53 7 9 mph 1012.3mb 65f 63f
12:38 9 11 mph 1012.6mb 65f 63f
12:23 11 13 mph 1013.2mb 65f 64f
12:08 13 16 mph 1013.5mb 65f 64f
11:53 11 16 mph 1013.8mb 65f 64f
11:38 11 16 mph 1013.9mb 65f 64f
11:23 13 18 mph 1013.9mb 65f 65f
11:08 16 22 mph 1013.5mb 65f 66f
10:53 16 20 mph 1013.5mb 65f 66f
10:38 16 20 mph 1013.5mb 65f 66f
10:23 13 18 mph 1013.7mb 65f 66f
10:08 13 18 mph 1013.3mb 65f 66f
9:53 13 20 mph 1013.3mb 65f 66f
9:38 11 16 mph 1013.4mb 65f 66f
9:23 13 16 mph 1013.4mb 65f 66f
9:08 11 16 mph 1013.5mb 65f 66f
8:53 11 16 mph 1013.3mb 65f 66f
8:38 13 18 mph 1013.2mb 65f 66f
8:23 13 18 mph 1013.3mb 65f 66f
8:08 13 18 mph 1013.4mb 65f 66f
7:53 13 18 mph 1013.7mb 65f 66f
7:38 13 18 mph 1013.7mb 65f 65f
7:23 13 18 mph 1013.7mb 65f 65f
7:08 11 18 mph 1013.7mb 65f 65f
6:53 13 16 mph 1013.7mb 65f 65f
6:38 11 16 mph 1013.8mb 65f 65f
6:23 9 13 mph 1013.9mb 65f 65f
6:08 9 13 mph 1013.7mb 65f 64f
5:08 13 16 mph 1013.9mb 65f 64f
4:53 11 16 mph 1013.8mb 65f 64f
4:38 11 16 mph 1013.9mb 65f 64f
4:23 11 16 mph 1013.8mb 65f 64f
4:08 11 13 mph 1013.8mb 65f 64f
3:53 11 16 mph 1014.1mb 65f 64f
3:38 11 16 mph 1014.1mb 65f 64f
3:23 13 18 mph 1014.1mb 65f 64f
3:08 16 18 mph 1014.1mb 65f 64f
2:53 13 18 mph 1014.1mb 65f 64f
2:38 13 16 mph 1014mb 65f 64f
2:23 13 16 mph 1014.1mb 65f 64f
2:08 13 18 mph 1014.6mb 65f 64f
1:08 16 22 mph 1015mb 65f 64f
12:53 16 20 mph 1015mb 65f 64f
12:38 16 20 mph 1015mb 65f 64f
12:23 16 20 mph 1015mb 65f 64f
12:08 16 22 mph 1015.2mb 65f 63f
Fr 04/24 11:53 16 20 mph 1015.3mb 65f 63f
11:38 16 20 mph 1015.5mb 65f 63f
11:23 16 22 mph 1015.6mb 65f 64f
11:08 16 20 mph 1015.8mb 65f 64f
10:53 16 20 mph 1015.8mb 65f 64f
10:38 16 22 mph 1016mb 65f 63f
10:23 16 22 mph 1016.2mb 65f 64f
10:08 16 22 mph 1016.3mb 65f 63f
9:53 16 22 mph 1016.2mb 65f 64f
9:38 18 22 mph 1016.4mb 65f 64f
9:23 18 22 mph 1016.1mb 65f 64f
9:08 18 22 mph 1016.1mb 65f 63f
8:53 18 25 mph 1016mb 65f 63f
8:38 18 22 mph 1015.6mb 65f 63f
8:23 18 22 mph 1015.6mb 65f 63f
7:08 16 22 mph 1015.2mb 66f 62f
6:08 18 22 mph 1015.4mb 66f 63f
5:08 11 16 mph 1015.5mb 66f 63f
4:08 7 9 mph 1015.1mb 66f 64f
3:08 4 9 mph 1016mb 66f 64f
2:08 9 13 mph 1016.8mb 66f 63f
1:08 9 13 mph 1016.8mb 65f 61f
12:08 9 16 mph 1018mb 65f 59f
11:08 16 22 mph 1017.9mb 65f 58f
10:08 16 22 mph 1017.5mb 65f 56f
9:08 18 22 mph 1017.1mb 65f 56f
8:08 18 27 mph 1016.7mb 65f 54f
7:08 20 27 mph 1016mb 65f 55f
6:08 22 29 mph 1015.1mb 65f 56f
5:08 25 34 mph 1013.6mb 65f 58f
4:08 27 34 mph 1013mb 65f 60f
3:08 27 34 mph 1012.1mb 65f 62f
2:08 13 18 mph 1011.5mb 65f 65f
1:08 2 4 mph 1011.1mb 65f 65f
12:08 2
mph
1011mb 65f 65f
Do 04/23 11:08 2 4 mph 1010.8mb 65f 65f
10:08 4 7 mph 1010.8mb 66f 66f
9:08 9 11 mph 1010.8mb 66f 65f
8:53 9 11 mph 1010.8mb 66f 65f
8:38 9 13 mph 1010.8mb 66f 65f
8:23 9 13 mph 1010.8mb 66f 65f
8:08 11 13 mph 1010.8mb 66f 65f
7:53 11 13 mph 1010.6mb 66f 65f
7:38 9 13 mph 1010.8mb 66f 66f
7:23 9 11 mph 1010.8mb 66f 66f
7:08 9 13 mph 1010.9mb 66f 66f
6:53 9 13 mph 1011mb 66f 66f
6:38 11 13 mph 1010.9mb 66f 66f
6:23 9 11 mph 1010.9mb 66f 66f
6:08 7 9 mph 1010.9mb 66f 66f
5:53 9 11 mph 1010.9mb 66f 65f
5:38 9 11 mph 1011.1mb 66f 65f
5:23 9 11 mph 1011.1mb 66f 65f
5:08 9 13 mph 1010.9mb 66f 65f
4:53 9 13 mph 1010.8mb 66f 65f
4:38 11 13 mph 1011mb 66f 65f
4:23 11 13 mph 1010.9mb 66f 64f
4:08 11 13 mph 1010.9mb 66f 64f
3:53 11 16 mph 1010.8mb 66f 64f
3:38 11 13 mph 1011.1mb 66f 64f
3:23 9 11 mph 1011.1mb 66f 64f
3:08 9 11 mph 1011.2mb 66f 64f
2:53 9 13 mph 1011.5mb 66f 64f
2:38 11 13 mph 1011.9mb 66f 64f
2:08 11 16 mph 1012.1mb 66f 64f
1:53 11 16 mph 1012.1mb 66f 64f
12:53 11 16 mph 1012.8mb 66f 63f
11:54 20 27 mph - - -
11:51 20 29 mph - - -
11:00 11 16 mph 1013.1mb 65f 65f
10:00 13 16 mph 1012.8mb 65f 65f
9:00 13 18 mph 1012.3mb 65f 65f
8:00 13 16 mph 1011.8mb 65f 66f
7:00 13
mph
1011.1mb 65f 66f
6:00 13 16 mph 1009.7mb 65f 67f
5:00 13 18 mph 1009.6mb 65f 67f
4:00 16 18 mph 1009.5mb 65f 67f
3:00 18 20 mph 1009.3mb 65f 68f
2:00 20 22 mph 1009.2mb 66f 68f
1:00 22 27 mph 1009.7mb 66f 68f
12:00 22 25 mph 1010mb 66f 68f
Mi 04/22 11:00 25 27 mph 1010mb 65f 68f
10:00 20 22 mph 1009.8mb 66f 68f
9:00 20 22 mph 1010mb 66f 68f
8:00 22 25 mph 1009.8mb 66f 68f
7:00 18 20 mph 1010.3mb 66f 68f
6:00 22 27 mph 1010mb 66f 68f
5:00 22 29 mph 1009.9mb 66f 68f
4:00 22 27 mph 1009.9mb 66f 68f
3:00 18 22 mph 1010.5mb 66f 68f
2:00 13 18 mph 1011.5mb 66f 68f
1:00 13 18 mph 1012.3mb 66f 67f
12:00 7
mph
1013.2mb 66f 68f
11:00 9 11 mph 1013.6mb 65f 66f
8:00 9 11 mph 1013.5mb 65f 64f
7:00 7 9 mph 1013.2mb 65f 63f
6:00 9
mph
1012.9mb 65f 62f
5:00 9 11 mph 1013mb 65f 64f
4:00 9 11 mph 1013mb 65f 64f
3:00 7 9 mph 1012.7mb 65f 64f
2:00 9 11 mph 1012.9mb 65f 65f
1:00 11
mph
1012.9mb 65f 65f
12:00 13 16 mph 1012.7mb 65f 66f
Di 04/21 11:00 11 13 mph 1012.3mb 65f 66f
10:00 9 11 mph 1012mb 65f 66f
9:00 13 16 mph 1011.9mb 66f 67f